Time;durP1;ratioP1;P1;durP2;ratioP2;P2;SDS_P1;SDS_P2;PMS_P1;PMS_P2;Temp;Humidity;BMP_temperature;BMP_pressure;BME280_temperature;BME280_humidity;BME280_pressure;Samples;Min_cycle;Max_cycle;Signal;HPM_P1;HPM_P2
2021/11/24 00:01:49;;;;;;;10.40;8.27;;;;;;;13.96;58.42;101866.03;4838966;29;20030;-91
2021/11/24 00:04:14;;;;;;;9.30;8.30;;;;;;;14.04;58.08;101862.00;4840995;29;20109;-91
2021/11/24 00:06:40;;;;;;;9.55;8.05;;;;;;;14.12;57.66;101856.28;4841170;29;20169;-91
2021/11/24 00:09:05;;;;;;;9.13;8.00;;;;;;;14.11;57.65;101843.16;4841144;29;20022;-91
2021/11/24 00:11:30;;;;;;;10.65;8.15;;;;;;;14.04;58.17;101838.25;4839721;29;20030;-91
2021/11/24 00:13:56;;;;;;;9.50;7.93;;;;;;;13.99;58.17;101837.66;4841082;29;20034;-91
2021/11/24 00:16:22;;;;;;;12.75;8.25;;;;;;;14.00;57.77;101835.84;4840524;29;20042;-91
2021/11/24 00:18:48;;;;;;;10.57;7.70;;;;;;;14.04;57.88;101845.28;4840989;29;20030;-91
2021/11/24 00:21:13;;;;;;;11.13;8.13;;;;;;;13.99;58.29;101842.09;4841109;29;20037;-91
2021/11/24 00:23:39;;;;;;;8.98;7.22;;;;;;;14.03;58.19;101846.25;4840802;29;20061;-91
2021/11/24 00:26:04;;;;;;;9.00;7.15;;;;;;;14.00;58.17;101842.00;4839381;29;20404;-91
2021/11/24 00:28:30;;;;;;;8.57;6.85;;;;;;;14.00;57.93;101836.72;4841061;29;20033;-91
2021/11/24 00:30:55;;;;;;;10.10;7.63;;;;;;;14.04;58.09;101842.66;4840819;29;20030;-91
2021/11/24 00:33:21;;;;;;;8.95;7.18;;;;;;;14.00;58.30;101833.22;4822660;29;20034;-91
2021/11/24 00:35:46;;;;;;;11.95;8.10;;;;;;;13.89;58.47;101834.72;4831394;29;20041;-91
2021/11/24 00:38:12;;;;;;;9.23;7.40;;;;;;;13.82;58.42;101825.47;4840748;29;20038;-91
2021/11/24 00:40:38;;;;;;;10.00;6.85;;;;;;;13.88;58.54;101818.94;4840665;29;20029;-91
2021/11/24 00:43:04;;;;;;;7.90;6.38;;;;;;;13.92;58.30;101828.41;4840856;29;20096;-91
2021/11/24 00:45:30;;;;;;;10.55;6.88;;;;;;;13.86;58.51;101821.69;4840999;29;20072;-91
2021/11/24 00:47:56;;;;;;;10.65;7.45;;;;;;;13.75;58.66;101824.13;4839569;29;20420;-91
2021/11/24 00:50:21;;;;;;;8.68;6.90;;;;;;;13.83;58.89;101824.50;4840494;29;20040;-90
2021/11/24 00:52:47;;;;;;;10.68;7.57;;;;;;;13.86;58.47;101828.75;4840466;29;20030;-91
2021/11/24 00:55:12;;;;;;;9.52;7.38;;;;;;;13.85;58.79;101822.63;4840523;29;20090;-91
2021/11/24 00:57:38;;;;;;;10.10;7.80;;;;;;;13.86;58.71;101805.88;4840457;29;20061;-91
2021/11/24 01:00:04;;;;;;;10.45;8.13;;;;;;;13.89;58.40;101803.03;4840620;29;20026;-91
2021/11/24 01:02:30;;;;;;;10.23;8.38;;;;;;;13.97;58.67;101804.38;4840729;29;20477;-91
2021/11/24 01:04:55;;;;;;;12.55;8.85;;;;;;;13.98;58.58;101800.75;4840275;29;20026;-91
2021/11/24 01:07:20;;;;;;;11.52;8.75;;;;;;;14.02;58.47;101802.28;4841313;29;20110;-91
2021/11/24 01:09:51;;;;;;;11.60;9.18;;;;;;;14.06;58.29;101803.81;4843953;29;20034;-91
2021/11/24 01:12:17;;;;;;;13.60;10.32;;;;;;;14.05;58.30;101802.09;4843980;29;20053;-91
2021/11/24 01:14:42;;;;;;;15.13;10.52;;;;;;;14.09;58.07;101798.34;4843943;29;20029;-91
2021/11/24 01:17:08;;;;;;;14.18;10.43;;;;;;;14.07;58.37;101793.13;4843874;29;20025;-91
2021/11/24 01:19:33;;;;;;;15.73;10.20;;;;;;;14.05;58.19;101786.25;4842212;29;20071;-91
2021/11/24 01:21:59;;;;;;;14.13;9.52;;;;;;;14.05;58.34;101780.97;4843893;29;20108;-91
2021/11/24 01:24:24;;;;;;;14.05;10.75;;;;;;;14.00;57.99;101783.03;4844109;29;20030;-91
2021/11/24 01:26:49;;;;;;;12.50;8.88;;;;;;;13.98;58.19;101775.22;4843821;29;20038;-90
2021/11/24 01:29:15;;;;;;;15.07;10.38;;;;;;;13.97;58.50;101773.53;4843640;29;20118;-91
2021/11/24 01:31:40;;;;;;;13.80;9.98;;;;;;;13.98;58.26;101769.06;4843565;29;20090;-91
2021/11/24 01:34:05;;;;;;;11.38;9.88;;;;;;;14.07;57.97;101776.44;4843466;29;20156;-90
2021/11/24 01:36:31;;;;;;;13.68;10.52;;;;;;;14.00;58.15;101769.84;4843682;29;20108;-90
2021/11/24 01:38:56;;;;;;;13.38;10.45;;;;;;;14.02;57.91;101763.53;4843372;29;20030;-91
2021/11/24 01:41:21;;;;;;;15.10;11.00;;;;;;;13.91;57.37;101767.78;4843608;29;20061;-90
2021/11/24 01:43:47;;;;;;;14.82;11.10;;;;;;;13.84;57.99;101754.06;4842235;29;20034;-91
2021/11/24 01:46:12;;;;;;;14.23;10.15;;;;;;;13.89;57.83;101747.56;4843461;29;20108;-91
2021/11/24 01:48:37;;;;;;;13.68;10.55;;;;;;;13.83;58.19;101747.94;4843196;29;20037;-90
2021/11/24 01:51:03;;;;;;;13.90;10.48;;;;;;;13.87;58.03;101741.53;4843104;29;20069;-91
2021/11/24 01:53:29;;;;;;;14.45;10.20;;;;;;;13.90;58.07;101745.78;4843067;29;20034;-91
2021/11/24 01:56:00;;;;;;;12.65;10.35;;;;;;;13.93;57.86;101742.13;4843220;29;20034;-91
2021/11/24 01:58:26;;;;;;;19.27;11.35;;;;;;;13.92;58.22;101743.06;4843215;29;20057;-91
2021/11/24 02:00:52;;;;;;;15.10;11.65;;;;;;;13.86;58.09;101733.69;4843212;29;20064;-91
2021/11/24 02:03:18;;;;;;;14.75;11.48;;;;;;;13.88;58.55;101737.09;4842796;29;20041;-90
2021/11/24 02:05:43;;;;;;;15.07;11.95;;;;;;;13.83;58.29;101732.09;4842831;29;20108;-91
2021/11/24 02:08:09;;;;;;;14.38;10.60;;;;;;;13.83;58.13;101729.47;4842786;29;20442;-91
2021/11/24 02:10:34;;;;;;;19.65;12.38;;;;;;;13.82;58.45;101722.50;4843123;29;20088;-91
2021/11/24 02:13:00;;;;;;;17.00;10.90;;;;;;;13.80;58.46;101724.38;4842936;29;20026;-90
2021/11/24 02:15:25;;;;;;;16.98;11.55;;;;;;;13.74;58.49;101718.63;4842932;29;20297;-91
2021/11/24 02:17:51;;;;;;;14.35;10.85;;;;;;;13.79;58.60;101720.03;4841509;29;20481;-90
2021/11/24 02:20:41;;;;;;;12.50;9.68;;;;;;;13.78;58.32;101715.69;4842205;29;20370;-90
2021/11/24 02:23:09;;;;;;;12.57;9.90;;;;;;;13.79;58.20;101708.63;4842693;29;20064;-90
2021/11/24 02:25:34;;;;;;;13.82;10.63;;;;;;;13.80;58.33;101703.28;4842913;29;20042;-91
2021/11/24 02:28:00;;;;;;;15.43;12.57;;;;;;;13.79;58.13;101696.28;4842655;29;20090;-90
2021/11/24 02:30:26;;;;;;;14.75;11.85;;;;;;;13.79;58.09;101698.91;4842660;29;20044;-91
2021/11/24 02:32:52;;;;;;;16.27;11.77;;;;;;;13.83;57.77;101700.44;4843119;29;20113;-91
2021/11/24 02:35:18;;;;;;;17.40;11.50;;;;;;;13.71;57.93;101695.06;4842565;29;20036;-91
2021/11/24 02:37:43;;;;;;;16.38;11.55;;;;;;;13.72;58.07;101694.94;4842224;29;20045;-91
2021/11/24 02:40:09;;;;;;;16.70;12.25;;;;;;;13.72;57.97;101683.53;4842442;29;20083;-90
2021/11/24 02:42:39;;;;;;;17.73;13.40;;;;;;;13.70;58.31;101686.28;4842421;29;20030;-90
2021/11/24 02:45:05;;;;;;;17.67;13.60;;;;;;;13.70;58.26;101675.72;4842440;29;20046;-91
2021/11/24 02:47:30;;;;;;;16.92;12.48;;;;;;;13.66;57.93;101675.06;4842341;29;20073;-90
2021/11/24 02:49:56;;;;;;;16.70;11.82;;;;;;;13.63;57.93;101669.13;4842271;29;20111;-90
2021/11/24 02:52:23;;;;;;;15.13;11.40;;;;;;;13.63;57.94;101664.69;4841906;29;20477;-90
2021/11/24 02:54:54;;;;;;;16.13;11.15;;;;;;;13.62;57.64;101662.97;4840846;29;20026;-90
2021/11/24 02:57:28;;;;;;;12.63;9.38;;;;;;;13.64;57.75;101658.47;4842183;29;20038;-90
2021/11/24 02:59:53;;;;;;;15.23;11.32;;;;;;;13.63;57.96;101664.69;4842118;29;20030;-90
2021/11/24 03:02:19;;;;;;;17.38;11.73;;;;;;;13.62;57.96;101664.78;4842384;29;20026;-91
2021/11/24 03:04:44;;;;;;;12.32;10.43;;;;;;;13.60;57.81;101656.94;4842341;29;20545;-90
2021/11/24 03:07:09;;;;;;;16.33;12.30;;;;;;;13.62;57.80;101651.59;4842348;29;20544;-90
2021/11/24 03:09:35;;;;;;;15.73;12.15;;;;;;;13.54;57.42;101651.22;4841182;29;20026;-90
2021/11/24 03:12:00;;;;;;;14.32;12.10;;;;;;;13.60;57.40;101653.47;4842387;29;20025;-90
2021/11/24 03:14:25;;;;;;;12.38;10.35;;;;;;;13.55;57.35;101648.47;4842372;29;20485;-90
2021/11/24 03:16:51;;;;;;;12.38;10.07;;;;;;;13.57;57.75;101648.41;4841848;29;20065;-90
2021/11/24 03:19:16;;;;;;;13.05;10.27;;;;;;;13.59;57.24;101641.22;4840944;29;20469;-90
2021/11/24 03:21:42;;;;;;;14.75;11.27;;;;;;;13.58;57.39;101650.91;4841998;29;20022;-90
2021/11/24 03:24:07;;;;;;;14.85;11.65;;;;;;;13.58;57.29;101644.78;4840539;29;20033;-91
2021/11/24 03:26:33;;;;;;;13.85;11.35;;;;;;;13.63;57.43;101633.03;4841431;29;20475;-91
2021/11/24 03:28:59;;;;;;;15.18;11.23;;;;;;;13.66;57.18;101632.84;4841976;29;20033;-90
2021/11/24 03:31:24;;;;;;;16.30;12.75;;;;;;;13.66;57.07;101627.56;4840963;29;20038;-91
2021/11/24 03:33:51;;;;;;;18.50;13.60;;;;;;;13.69;57.32;101631.81;4841659;29;20046;-90
2021/11/24 03:36:16;;;;;;;19.08;13.27;;;;;;;13.63;57.39;101622.47;4839296;29;20086;-90
2021/11/24 03:38:42;;;;;;;15.52;11.77;;;;;;;13.71;57.57;101619.34;4841413;29;20463;-91
2021/11/24 03:41:08;;;;;;;16.98;12.40;;;;;;;13.71;57.66;101623.78;4841157;29;20468;-91
2021/11/24 03:43:33;;;;;;;18.83;13.23;;;;;;;13.72;57.74;101613.13;4841247;29;20030;-90
2021/11/24 03:45:58;;;;;;;15.50;12.73;;;;;;;13.72;57.59;101613.13;4841346;29;20033;-91
2021/11/24 03:48:24;;;;;;;15.82;12.40;;;;;;;13.66;57.23;101608.22;4841444;29;20026;-90
2021/11/24 03:50:50;;;;;;;15.38;11.80;;;;;;;13.73;57.53;101616.63;4841335;29;20030;-90
2021/11/24 03:53:15;;;;;;;14.55;11.98;;;;;;;13.66;57.15;101616.13;4841264;29;20045;-91
2021/11/24 03:55:40;;;;;;;13.45;10.40;;;;;;;13.52;56.39;101609.06;4840835;29;20034;-90
2021/11/24 03:58:06;;;;;;;13.38;10.27;;;;;;;13.56;56.71;101601.81;4839879;29;20462;-90
2021/11/24 04:00:33;;;;;;;10.07;8.80;;;;;;;13.61;56.92;101602.41;4841234;29;20120;-91
2021/11/24 04:02:59;;;;;;;12.25;9.43;;;;;;;13.53;56.15;101596.75;4841168;29;20026;-90
2021/11/24 04:05:24;;;;;;;10.55;9.05;;;;;;;13.36;57.14;101593.34;4841147;29;20087;-90
2021/11/24 04:07:50;;;;;;;11.95;9.32;;;;;;;13.42;56.88;101590.31;4841428;29;20426;-90
2021/11/24 04:10:16;;;;;;;12.73;10.77;;;;;;;13.44;57.29;101590.22;4840987;29;20493;-90
2021/11/24 04:12:42;;;;;;;11.75;9.82;;;;;;;13.36;57.22;101581.94;4841105;29;20478;-90
2021/11/24 04:15:13;;;;;;;13.90;11.30;;;;;;;13.37;58.01;101589.78;4840943;29;20030;-90
2021/11/24 04:17:39;;;;;;;15.70;10.17;;;;;;;13.35;57.38;101577.59;4840902;29;20034;-90
2021/11/24 04:20:07;;;;;;;13.40;10.77;;;;;;;13.36;57.40;101571.38;4840986;29;20022;-90
2021/11/24 04:22:32;;;;;;;12.98;10.32;;;;;;;13.55;57.07;101577.22;4841309;29;20066;-90
2021/11/24 04:24:57;;;;;;;15.48;11.68;;;;;;;13.55;57.34;101571.97;4840731;29;20064;-90
2021/11/24 04:27:23;;;;;;;14.52;9.70;;;;;;;13.52;57.21;101574.78;4840851;29;20418;-90
2021/11/24 04:29:48;;;;;;;11.30;9.13;;;;;;;13.50;57.17;101571.38;4840783;29;20038;-90
2021/11/24 04:32:16;;;;;;;8.52;7.05;;;;;;;13.59;56.76;101562.06;4841151;29;20033;-90
2021/11/24 04:34:42;;;;;;;8.63;7.30;;;;;;;13.37;57.23;101566.03;4840919;29;20038;-90
2021/11/24 04:37:07;;;;;;;9.43;7.85;;;;;;;13.31;57.83;101563.78;4841057;29;20054;-91
2021/11/24 04:39:32;;;;;;;9.15;6.93;;;;;;;13.31;58.15;101565.53;4840602;29;20034;-90
2021/11/24 04:41:58;;;;;;;7.32;6.60;;;;;;;13.29;57.52;101557.72;4841325;29;20040;-90
2021/11/24 04:44:23;;;;;;;8.30;7.35;;;;;;;13.30;58.19;101546.22;4844333;29;20030;-90
2021/11/24 04:46:49;;;;;;;9.15;7.35;;;;;;;13.28;57.72;101540.16;4844482;29;20030;-90
2021/11/24 04:49:14;;;;;;;8.70;6.75;;;;;;;13.24;58.31;101542.13;4844603;29;20179;-90
2021/11/24 04:51:39;;;;;;;8.32;6.75;;;;;;;13.43;57.81;101543.69;4844412;29;20033;-90
2021/11/24 04:54:05;;;;;;;9.07;7.15;;;;;;;13.38;57.44;101541.31;4843699;29;20077;-90
2021/11/24 04:56:30;;;;;;;6.90;5.57;;;;;;;13.42;57.87;101547.28;4844303;29;20126;-90
2021/11/24 04:58:58;;;;;;;7.28;5.95;;;;;;;13.34;57.65;101531.91;4843963;29;20068;-90
2021/11/24 05:01:24;;;;;;;7.50;6.18;;;;;;;13.40;58.23;101543.88;4843775;29;20026;-90
2021/11/24 05:03:50;;;;;;;6.85;5.63;;;;;;;13.42;57.95;101534.91;4843872;29;20425;-90
2021/11/24 05:06:17;;;;;;;7.75;6.43;;;;;;;13.41;58.05;101522.69;4843976;29;20045;-90
2021/11/24 05:08:42;;;;;;;9.35;6.68;;;;;;;13.41;57.78;101532.41;4843830;29;20042;-91
2021/11/24 05:11:09;;;;;;;9.20;7.10;;;;;;;13.39;58.04;101537.75;4843970;29;20602;-91
2021/11/24 05:13:35;;;;;;;8.50;6.93;;;;;;;13.42;58.03;101534.06;4843840;29;20473;-90
2021/11/24 05:16:04;;;;;;;8.38;6.20;;;;;;;13.42;58.25;101527.00;4843739;29;20477;-90
2021/11/24 05:18:38;;;;;;;6.95;6.22;;;;;;;13.42;58.21;101534.06;4844024;29;20108;-90
2021/11/24 05:21:49;;;;;;;8.98;6.45;;;;;;;13.38;58.02;101530.78;4843911;29;20062;-90
2021/11/24 05:23:52;;;;;;;8.75;6.50;;;;;;;13.39;58.46;101532.47;4840390;29;20473;-90
2021/11/24 05:26:18;;;;;;;8.82;6.78;;;;;;;13.40;58.13;101531.53;4843868;29;20037;-90
2021/11/24 05:28:44;;;;;;;8.15;6.78;;;;;;;13.43;57.94;101520.78;4843653;29;20033;-90
2021/11/24 05:31:09;;;;;;;7.35;5.88;;;;;;;13.41;57.76;101529.75;4843782;29;20030;-90
2021/11/24 05:33:36;;;;;;;9.38;6.57;;;;;;;13.40;57.87;101523.59;4843657;29;20065;-90
2021/11/24 05:36:03;;;;;;;6.00;5.40;;;;;;;13.35;58.05;101524.84;4843725;29;20022;-90
2021/11/24 05:38:28;;;;;;;6.47;5.30;;;;;;;13.34;58.00;101524.00;4841972;29;20118;-91
2021/11/24 05:40:54;;;;;;;8.57;6.05;;;;;;;13.38;58.32;101517.59;4842003;29;20075;-90
2021/11/24 05:43:21;;;;;;;6.70;5.47;;;;;;;13.37;57.93;101513.25;4843706;29;20033;-90
2021/11/24 05:48:19;;;;;;;6.75;5.05;;;;;;;13.31;57.26;101496.94;4843737;29;20030;-91
2021/11/24 05:50:47;;;;;;;5.38;4.45;;;;;;;13.28;57.08;101496.16;4843535;29;20477;-89
2021/11/24 05:53:15;;;;;;;5.82;5.20;;;;;;;13.23;57.17;101492.13;4842821;29;20770;-90
2021/11/24 05:55:42;;;;;;;5.72;5.13;;;;;;;13.21;57.15;101494.00;4842706;29;20057;-90
2021/11/24 05:58:08;;;;;;;5.15;4.65;;;;;;;13.22;57.08;101485.16;4842895;29;20074;-90
2021/11/24 06:00:33;;;;;;;7.05;5.07;;;;;;;13.03;57.51;101486.31;4843375;29;20038;-90
2021/11/24 06:02:59;;;;;;;5.55;4.53;;;;;;;13.03;58.23;101486.31;4843247;29;20070;-90
2021/11/24 06:05:25;;;;;;;4.82;4.32;;;;;;;13.04;58.21;101477.44;4843033;29;20057;-90
2021/11/24 06:07:50;;;;;;;5.47;4.47;;;;;;;13.20;58.18;101471.22;4841801;29;20082;-91
2021/11/24 06:10:16;;;;;;;6.00;4.40;;;;;;;13.32;57.74;101462.56;4843561;29;20389;-90
2021/11/24 06:12:41;;;;;;;5.35;4.63;;;;;;;13.30;57.91;101467.09;4842870;29;20475;-91
2021/11/24 06:15:07;;;;;;;6.30;4.47;;;;;;;13.34;57.62;101460.69;4843188;29;20023;-90
2021/11/24 06:17:32;;;;;;;6.30;4.90;;;;;;;13.36;57.64;101458.81;4843178;29;20580;-91
2021/11/24 06:19:58;;;;;;;4.72;4.22;;;;;;;13.34;57.27;101462.47;4843110;29;20026;-91
2021/11/24 06:22:23;;;;;;;5.63;4.32;;;;;;;13.34;57.50;101455.41;4843180;29;20481;-90
2021/11/24 06:24:49;;;;;;;7.97;4.00;;;;;;;13.39;57.47;101461.25;4843380;29;20045;-90
2021/11/24 06:27:14;;;;;;;5.50;4.25;;;;;;;13.37;57.61;101449.97;4842666;29;20112;-91
2021/11/24 06:29:40;;;;;;;5.18;4.35;;;;;;;13.33;57.88;101451.09;4843044;29;20472;-91
2021/11/24 06:32:05;;;;;;;5.10;4.32;;;;;;;13.32;57.68;101451.19;4842957;29;20456;-90
2021/11/24 06:34:31;;;;;;;5.63;4.38;;;;;;;13.40;57.69;101456.81;4842642;29;20508;-90
2021/11/24 06:36:57;;;;;;;5.28;4.78;;;;;;;13.37;57.29;101455.22;4842556;29;20094;-90
2021/11/24 06:39:24;;;;;;;5.63;4.75;;;;;;;13.36;57.54;101453.53;4842926;29;20087;-90
2021/11/24 06:41:50;;;;;;;5.90;4.65;;;;;;;13.27;57.63;101446.19;4842494;29;20030;-90
2021/11/24 06:44:16;;;;;;;5.45;4.88;;;;;;;13.30;57.71;101446.00;4842646;29;20034;-90
2021/11/24 06:46:41;;;;;;;5.93;4.13;;;;;;;13.30;57.93;101440.72;4842511;29;20029;-90
2021/11/24 06:49:07;;;;;;;5.00;4.28;;;;;;;13.32;57.75;101432.72;4842552;29;20061;-90
2021/11/24 06:51:33;;;;;;;4.85;3.90;;;;;;;13.29;58.20;101428.47;4842138;29;20507;-90
2021/11/24 06:53:59;;;;;;;6.72;4.70;;;;;;;13.33;57.87;101440.53;4842561;29;20026;-90
2021/11/24 06:56:24;;;;;;;4.85;4.35;;;;;;;13.30;57.99;101432.81;4841575;29;20042;-90
2021/11/24 06:58:49;;;;;;;6.78;4.03;;;;;;;13.31;58.29;101429.25;4842123;29;20037;-90
2021/11/24 07:01:15;;;;;;;5.10;4.13;;;;;;;13.27;58.46;101435.63;4842182;29;20381;-89
2021/11/24 07:03:40;;;;;;;5.15;4.65;;;;;;;13.31;58.34;101429.25;4840863;29;20056;-90
2021/11/24 07:06:06;;;;;;;5.65;5.05;;;;;;;13.32;57.79;101430.09;4841044;29;20037;-90
2021/11/24 07:08:31;;;;;;;7.03;5.13;;;;;;;13.30;57.62;101424.91;4841980;29;20030;-90
2021/11/24 07:10:56;;;;;;;5.82;5.18;;;;;;;13.37;57.87;101412.16;4841597;29;20030;-89
2021/11/24 07:13:22;;;;;;;6.70;5.43;;;;;;;13.34;58.02;101417.66;4841668;29;20033;-90
2021/11/24 07:15:47;;;;;;;5.68;5.05;;;;;;;13.17;58.33;101427.44;4840578;29;20034;-90
2021/11/24 07:18:13;;;;;;;5.63;5.10;;;;;;;13.23;58.26;101428.81;4843086;29;20548;-90
2021/11/24 07:20:38;;;;;;;6.93;4.88;;;;;;;13.24;58.23;101414.72;4846572;29;20022;-91
2021/11/24 07:23:04;;;;;;;4.78;4.13;;;;;;;13.28;58.21;101419.69;4846155;29;20042;-90
2021/11/24 07:25:31;;;;;;;5.82;4.90;;;;;;;13.29;58.23;101412.63;4843362;29;20030;-90
2021/11/24 07:27:57;;;;;;;6.43;5.20;;;;;;;13.29;57.87;101415.28;4843584;29;20040;-89
2021/11/24 07:30:22;;;;;;;5.78;5.15;;;;;;;13.31;57.77;101418.69;4843154;29;20034;-90
2021/11/24 07:32:48;;;;;;;7.75;5.25;;;;;;;13.30;57.85;101416.97;4843009;29;20093;-89
2021/11/24 07:35:14;;;;;;;5.47;4.97;;;;;;;13.29;58.00;101412.63;4843926;29;20321;-90
2021/11/24 07:37:39;;;;;;;5.90;5.00;;;;;;;13.27;57.96;101422.44;4843478;29;20133;-89
2021/11/24 07:40:07;;;;;;;7.72;5.47;;;;;;;13.23;58.22;101418.28;4842845;29;20026;-90
2021/11/24 07:42:32;;;;;;;6.25;5.30;;;;;;;13.26;58.52;101412.81;4842296;29;20111;-90
2021/11/24 07:44:58;;;;;;;5.13;4.63;;;;;;;13.25;58.33;101411.97;4841900;29;20507;-90
2021/11/24 07:47:24;;;;;;;5.65;5.05;;;;;;;13.21;57.86;101420.16;4842054;29;20041;-91
2021/11/24 07:49:49;;;;;;;6.28;5.55;;;;;;;13.26;57.75;101420.72;4840428;29;20485;-90
2021/11/24 07:52:15;;;;;;;6.78;4.93;;;;;;;13.25;58.36;101411.09;4841772;29;20078;-90
2021/11/24 07:54:40;;;;;;;5.55;4.78;;;;;;;13.30;58.06;101411.72;4841447;29;20310;-90
2021/11/24 07:57:06;;;;;;;6.00;5.18;;;;;;;13.26;57.96;101412.81;4841428;29;20040;-91
2021/11/24 07:59:31;;;;;;;6.55;5.25;;;;;;;13.25;58.52;101416.38;4842845;29;20114;-91
2021/11/24 08:01:57;;;;;;;5.50;4.95;;;;;;;13.19;58.45;101406.22;4841927;29;20085;-91
2021/11/24 08:04:22;;;;;;;7.95;5.13;;;;;;;13.22;58.45;101400.78;4840940;29;20037;-89
2021/11/24 08:06:47;;;;;;;5.55;4.70;;;;;;;13.26;58.08;101397.00;4841381;29;20036;-89
2021/11/24 08:09:13;;;;;;;6.43;5.43;;;;;;;13.25;58.63;101406.72;4841875;29;20111;-89
2021/11/24 08:11:38;;;;;;;8.10;5.50;;;;;;;13.26;58.61;101400.47;4850306;29;20030;-88
2021/11/24 08:14:04;;;;;;;7.68;5.20;;;;;;;13.22;58.79;101390.22;4842156;29;20102;-91
2021/11/24 08:16:29;;;;;;;7.13;5.00;;;;;;;13.25;58.52;101387.38;4842510;29;20038;-91
2021/11/24 08:18:55;;;;;;;7.40;5.50;;;;;;;13.27;58.58;101375.81;4842463;29;20030;-91
2021/11/24 08:21:21;;;;;;;8.68;6.30;;;;;;;13.28;58.40;101372.22;4843801;29;20034;-94
2021/11/24 08:23:47;;;;;;;13.05;8.23;;;;;;;13.29;58.31;101371.31;4848354;29;20484;-93
2021/11/24 08:26:13;;;;;;;11.85;8.07;;;;;;;13.32;57.99;101370.25;4847200;29;20122;-90
2021/11/24 08:28:39;;;;;;;15.75;8.52;;;;;;;13.35;58.46;101364.78;4849822;29;20057;-90
2021/11/24 08:31:04;;;;;;;13.23;8.85;;;;;;;13.20;58.50;101368.38;4847572;29;20072;-88
2021/11/24 08:33:30;;;;;;;11.95;8.30;;;;;;;13.09;58.66;101362.00;4851522;29;20061;-94
2021/11/24 08:35:55;;;;;;;8.02;6.88;;;;;;;13.09;58.95;101369.91;4850212;29;20034;-92
2021/11/24 08:38:21;;;;;;;8.57;5.95;;;;;;;13.07;59.05;101366.53;4848375;29;20033;-89
2021/11/24 08:40:46;;;;;;;7.15;5.75;;;;;;;13.10;58.85;101370.75;4850059;29;20472;-91
2021/11/24 08:43:12;;;;;;;6.55;5.75;;;;;;;13.07;58.91;101363.88;4844121;29;20046;-92
2021/11/24 08:45:37;;;;;;;8.18;5.95;;;;;;;13.16;59.26;101361.59;4847501;29;20041;-93
2021/11/24 08:48:04;;;;;;;7.18;6.28;;;;;;;13.22;58.59;101359.41;4849991;29;20037;-92
2021/11/24 08:50:30;;;;;;;8.30;6.53;;;;;;;13.27;58.59;101359.97;4851245;29;20021;-92
2021/11/24 08:52:56;;;;;;;8.50;6.18;;;;;;;13.30;58.62;101351.03;4848075;29;20054;-93
2021/11/24 08:55:22;;;;;;;7.07;5.88;;;;;;;13.31;58.76;101347.47;4844817;29;20042;-93
2021/11/24 08:57:48;;;;;;;8.13;6.63;;;;;;;13.36;57.97;101349.81;4852551;29;20034;-94
2021/11/24 09:00:17;;;;;;;8.93;6.15;;;;;;;13.38;58.15;101354.03;4849136;29;20090;-95
2021/11/24 09:02:44;;;;;;;7.70;6.85;;;;;;;13.29;58.44;101347.56;4827879;29;20132;-95
2021/11/24 09:05:12;;;;;;;7.80;5.82;;;;;;;13.35;58.41;101345.47;4855969;29;20029;-95
2021/11/24 09:07:38;;;;;;;6.63;5.72;;;;;;;13.37;57.90;101347.06;4851608;29;20116;-94
2021/11/24 09:10:05;;;;;;;9.63;7.13;;;;;;;13.39;58.05;101350.47;4846365;29;20444;-94
2021/11/24 09:12:30;;;;;;;7.60;6.20;;;;;;;13.42;58.26;101352.03;4842198;29;20026;-93
2021/11/24 09:14:56;;;;;;;6.93;5.85;;;;;;;13.47;58.31;101352.59;4845383;29;20030;-91
2021/11/24 09:17:21;;;;;;;8.68;6.18;;;;;;;13.49;58.14;101348.91;4848061;29;20095;-91
2021/11/24 09:19:47;;;;;;;6.50;5.78;;;;;;;13.50;58.12;101347.13;4853350;29;20105;-90
2021/11/24 09:22:13;;;;;;;6.72;5.97;;;;;;;13.45;57.68;101339.50;4840232;29;20446;-90
2021/11/24 09:24:40;;;;;;;7.30;5.97;;;;;;;13.48;57.78;101339.28;4854708;29;20049;-90
2021/11/24 09:27:16;;;;;;;8.68;6.47;;;;;;;13.53;57.76;101336.38;4852388;29;20023;-91
2021/11/24 09:29:41;;;;;;;6.65;5.78;;;;;;;13.49;57.33;101330.44;4842280;29;20129;-90
2021/11/24 09:32:07;;;;;;;9.10;6.40;;;;;;;13.48;57.57;101326.09;4852757;29;20537;-89
2021/11/24 09:34:32;;;;;;;7.60;6.80;;;;;;;13.51;57.92;101321.56;4846008;29;20041;-89
2021/11/24 09:36:59;;;;;;;7.43;5.88;;;;;;;13.47;57.65;101313.88;4850032;29;20101;-89
2021/11/24 09:39:24;;;;;;;8.57;6.40;;;;;;;13.51;57.86;101321.56;4850707;29;20037;-89
2021/11/24 09:41:52;;;;;;;10.63;6.80;;;;;;;13.46;57.50;101324.53;4847507;29;20200;-91
2021/11/24 09:44:17;;;;;;;8.02;6.78;;;;;;;13.52;57.76;101318.00;4850832;29;20030;-93
2021/11/24 09:46:45;;;;;;;8.68;6.85;;;;;;;13.54;57.92;101326.66;4850817;29;20030;-89
2021/11/24 09:49:12;;;;;;;7.68;6.07;;;;;;;13.51;57.72;101316.28;4847568;29;20497;-89
2021/11/24 09:51:39;;;;;;;11.80;7.30;;;;;;;13.47;57.79;101316.50;4852061;29;20034;-88
2021/11/24 09:54:05;;;;;;;9.10;6.53;;;;;;;13.59;57.83;101319.28;4848423;29;20033;-89
2021/11/24 09:56:31;;;;;;;8.23;6.05;;;;;;;13.49;57.71;101304.06;4850751;29;20162;-88
2021/11/24 09:58:57;;;;;;;7.15;6.00;;;;;;;13.46;57.89;101311.31;4849553;29;20140;-88
2021/11/24 10:01:22;;;;;;;7.60;6.15;;;;;;;13.46;57.58;101306.88;4850841;29;20033;-88
2021/11/24 10:03:48;;;;;;;7.07;5.40;;;;;;;13.50;57.42;101302.25;4847606;29;20092;-88
2021/11/24 10:06:14;;;;;;;5.88;5.00;;;;;;;13.55;57.27;101301.97;4852564;29;20052;-89
2021/11/24 10:08:40;;;;;;;7.53;4.45;;;;;;;13.51;57.48;101297.81;4851741;29;20045;-89
2021/11/24 10:11:06;;;;;;;6.88;4.28;;;;;;;13.39;57.46;101292.44;4851138;29;20030;-89
2021/11/24 10:13:31;;;;;;;8.27;4.38;;;;;;;13.49;57.19;101282.97;4850282;29;20029;-89
2021/11/24 10:15:57;;;;;;;4.95;4.25;;;;;;;13.49;57.11;101277.69;4846820;29;20485;-88
2021/11/24 10:18:35;;;;;;;5.32;4.30;;;;;;;13.48;56.39;101270.69;4851489;29;20038;-88
2021/11/24 10:21:20;;;;;;;5.88;4.15;;;;;;;13.57;56.99;101271.91;4846290;29;20037;-88
2021/11/24 10:23:48;;;;;;;3.65;3.33;;;;;;;13.58;56.35;101270.94;4852539;29;20058;-89
2021/11/24 10:26:17;;;;;;;5.00;4.00;;;;;;;13.60;56.43;101265.56;4849571;29;20443;-89
2021/11/24 10:28:53;;;;;;;5.28;4.30;;;;;;;13.75;56.32;101261.91;4847576;29;20495;-88
2021/11/24 10:31:34;;;;;;;5.50;3.75;;;;;;;13.80;55.55;101243.97;4853722;29;20052;-89
2021/11/24 10:34:02;;;;;;;5.53;4.50;;;;;;;13.75;55.95;101243.41;4844323;29;20041;-92
2021/11/24 10:36:28;;;;;;;5.15;4.65;;;;;;;13.87;55.43;101237.28;4862914;29;20409;-92
2021/11/24 10:38:55;;;;;;;6.38;4.07;;;;;;;14.09;54.34;101233.16;4849122;29;20258;-90
2021/11/24 10:41:35;;;;;;;5.95;4.65;;;;;;;14.22;53.96;101233.19;4854384;29;20025;-90
2021/11/24 10:44:02;;;;;;;6.20;5.10;;;;;;;14.11;54.01;101225.16;4848125;29;20489;-90
2021/11/24 10:46:28;;;;;;;5.05;4.55;;;;;;;13.98;54.87;101225.13;4849116;29;20193;-90
2021/11/24 10:49:01;;;;;;;7.18;4.93;;;;;;;13.97;54.67;101212.91;4847434;29;20214;-89
2021/11/24 10:51:43;;;;;;;7.88;5.47;;;;;;;13.93;55.08;101216.72;4852453;29;20026;-91
2021/11/24 10:54:14;;;;;;;6.45;4.75;;;;;;;13.88;55.37;101209.97;4842102;29;20033;-89
2021/11/24 10:57:08;;;;;;;7.93;5.13;;;;;;;13.58;55.76;101209.41;4845258;29;20030;-92
2021/11/24 10:59:39;;;;;;;5.70;4.38;;;;;;;13.56;56.12;101204.22;4848710;29;20057;-89
2021/11/24 11:02:47;;;;;;;5.25;4.70;;;;;;;13.59;56.53;101190.84;4850042;29;20512;-90
2021/11/24 11:05:15;;;;;;;7.35;4.93;;;;;;;13.54;56.49;101190.28;4813216;29;20589;-89
2021/11/24 11:07:55;;;;;;;8.35;4.57;;;;;;;13.54;56.59;101184.19;4846900;29;20050;-90
2021/11/24 11:10:27;;;;;;;8.32;5.72;;;;;;;13.52;56.67;101175.53;4852240;29;20442;-89
2021/11/24 11:12:57;;;;;;;5.05;4.40;;;;;;;13.57;56.43;101170.78;4851827;29;20029;-90
2021/11/24 11:15:30;;;;;;;5.45;4.70;;;;;;;13.64;56.13;101170.25;4859732;29;20040;-89
2021/11/24 11:18:15;;;;;;;7.40;5.30;;;;;;;13.65;56.71;101165.84;4859682;29;20038;-89
2021/11/24 11:21:00;;;;;;;6.45;5.00;;;;;;;13.85;56.10;101165.28;4859819;29;20125;-90